sensor_id;sensor_type;location;lat;lon;timestamp;pressure;altitude;pressure_sealevel;temperature
63113;BMP280;49206;48.020;21.378;2022-12-18T00:00:18;101864.38;;;-0.10
63113;BMP280;49206;48.020;21.378;2022-12-18T00:01:24;101870.53;;;-0.05
63113;BMP280;49206;48.020;21.378;2022-12-18T00:02:27;101864.69;;;0.00
63113;BMP280;49206;48.020;21.378;2022-12-18T00:03:29;101860.69;;;-0.03
63113;BMP280;49206;48.020;21.378;2022-12-18T00:04:32;101871.63;;;-0.12
63113;BMP280;49206;48.020;21.378;2022-12-18T00:05:35;101869.78;;;-0.12
63113;BMP280;49206;48.020;21.378;2022-12-18T00:06:38;101864.53;;;-0.05
63113;BMP280;49206;48.020;21.378;2022-12-18T00:07:42;101868.72;;;-0.04
63113;BMP280;49206;48.020;21.378;2022-12-18T00:08:44;101879.25;;;0.01
63113;BMP280;49206;48.020;21.378;2022-12-18T00:09:47;101874.06;;;0.01
63113;BMP280;49206;48.020;21.378;2022-12-18T00:10:50;101872.22;;;0.01
63113;BMP280;49206;48.020;21.378;2022-12-18T00:12:00;101882.41;;;0.03
63113;BMP280;49206;48.020;21.378;2022-12-18T00:13:16;101889.97;;;0.04
63113;BMP280;49206;48.020;21.378;2022-12-18T00:14:19;101885.81;;;0.03
63113;BMP280;49206;48.020;21.378;2022-12-18T00:15:21;101881.84;;;0.01
63113;BMP280;49206;48.020;21.378;2022-12-18T00:16:25;101890.66;;;0.00
63113;BMP280;49206;48.020;21.378;2022-12-18T00:17:27;101887.53;;;-0.09
63113;BMP280;49206;48.020;21.378;2022-12-18T00:18:30;101891.63;;;-0.01
63113;BMP280;49206;48.020;21.378;2022-12-18T00:19:33;101892.66;;;-0.02
63113;BMP280;49206;48.020;21.378;2022-12-18T00:20:37;101893.25;;;0.00
63113;BMP280;49206;48.020;21.378;2022-12-18T00:21:41;101894.63;;;0.03
63113;BMP280;49206;48.020;21.378;2022-12-18T00:22:43;101901.81;;;0.00
63113;BMP280;49206;48.020;21.378;2022-12-18T00:23:47;101901.81;;;0.00
63113;BMP280;49206;48.020;21.378;2022-12-18T00:24:51;101890.66;;;0.00
63113;BMP280;49206;48.020;21.378;2022-12-18T00:25:53;101903.84;;;-0.02
63113;BMP280;49206;48.020;21.378;2022-12-18T00:26:56;101906.22;;;0.00
63113;BMP280;49206;48.020;21.378;2022-12-18T00:27:58;101905.84;;;-0.04
63113;BMP280;49206;48.020;21.378;2022-12-18T00:29:05;101915.22;;;-0.03
63113;BMP280;49206;48.020;21.378;2022-12-18T00:30:08;101909.38;;;0.02
63113;BMP280;49206;48.020;21.378;2022-12-18T00:31:15;101907.00;;;0.00
63113;BMP280;49206;48.020;21.378;2022-12-18T00:32:18;101911.84;;;-0.03
63113;BMP280;49206;48.020;21.378;2022-12-18T00:33:20;101916.38;;;0.01
63113;BMP280;49206;48.020;21.378;2022-12-18T00:34:23;101919.78;;;0.02
63113;BMP280;49206;48.020;21.378;2022-12-18T00:35:26;101925.97;;;0.01
63113;BMP280;49206;48.020;21.378;2022-12-18T00:36:32;101919.50;;;-0.08
63113;BMP280;49206;48.020;21.378;2022-12-18T00:37:35;101926.84;;;-0.05
63113;BMP280;49206;48.020;21.378;2022-12-18T00:38:39;101925.78;;;0.03
63113;BMP280;49206;48.020;21.378;2022-12-18T00:39:42;101931.59;;;-0.02
63113;BMP280;49206;48.020;21.378;2022-12-18T00:40:44;101930.16;;;0.02
63113;BMP280;49206;48.020;21.378;2022-12-18T00:41:47;101934.19;;;-0.02
63113;BMP280;49206;48.020;21.378;2022-12-18T00:43:07;101942.13;;;0.03
63113;BMP280;49206;48.020;21.378;2022-12-18T00:44:12;101940.34;;;0.03
63113;BMP280;49206;48.020;21.378;2022-12-18T00:45:15;101937.75;;;0.03
63113;BMP280;49206;48.020;21.378;2022-12-18T00:46:17;101945.88;;;0.07
63113;BMP280;49206;48.020;21.378;2022-12-18T00:47:20;101949.78;;;-0.02
63113;BMP280;49206;48.020;21.378;2022-12-18T00:48:23;101944.22;;;-0.06
63113;BMP280;49206;48.020;21.378;2022-12-18T00:49:26;101954.09;;;0.04
63113;BMP280;49206;48.020;21.378;2022-12-18T00:50:29;101951.06;;;0.07
63113;BMP280;49206;48.020;21.378;2022-12-18T00:51:33;101957.16;;;0.01
63113;BMP280;49206;48.020;21.378;2022-12-18T00:52:35;101959.06;;;0.05
63113;BMP280;49206;48.020;21.378;2022-12-18T00:53:40;101958.72;;;0.02
63113;BMP280;49206;48.020;21.378;2022-12-18T00:54:43;101962.25;;;0.08
63113;BMP280;49206;48.020;21.378;2022-12-18T00:55:46;101966.72;;;0.00
63113;BMP280;49206;48.020;21.378;2022-12-18T00:56:48;101961.19;;;-0.03
63113;BMP280;49206;48.020;21.378;2022-12-18T00:57:51;101968.31;;;0.01
63113;BMP280;49206;48.020;21.378;2022-12-18T00:58:54;101967.47;;;0.08
63113;BMP280;49206;48.020;21.378;2022-12-18T00:59:57;101962.34;;;0.01
63113;BMP280;49206;48.020;21.378;2022-12-18T01:00:59;101963.50;;;0.05
63113;BMP280;49206;48.020;21.378;2022-12-18T01:02:02;101973.22;;;0.09
63113;BMP280;49206;48.020;21.378;2022-12-18T01:03:05;101970.13;;;0.01
63113;BMP280;49206;48.020;21.378;2022-12-18T01:04:08;101974.16;;;-0.03
63113;BMP280;49206;48.020;21.378;2022-12-18T01:05:12;101971.72;;;0.02
63113;BMP280;49206;48.020;21.378;2022-12-18T01:06:16;101971.56;;;-0.03
63113;BMP280;49206;48.020;21.378;2022-12-18T01:07:18;101967.53;;;0.01
63113;BMP280;49206;48.020;21.378;2022-12-18T01:08:21;101973.50;;;0.01
63113;BMP280;49206;48.020;21.378;2022-12-18T01:09:24;101971.72;;;0.02
63113;BMP280;49206;48.020;21.378;2022-12-18T01:10:26;101973.94;;;-0.02
63113;BMP280;49206;48.020;21.378;2022-12-18T01:11:31;101976.34;;;0.00
63113;BMP280;49206;48.020;21.378;2022-12-18T01:12:34;101976.91;;;-0.16
63113;BMP280;49206;48.020;21.378;2022-12-18T01:13:37;101982.28;;;-0.18
63113;BMP280;49206;48.020;21.378;2022-12-18T01:14:40;101981.72;;;-0.20
63113;BMP280;49206;48.020;21.378;2022-12-18T01:15:49;101988.44;;;-0.12
63113;BMP280;49206;48.020;21.378;2022-12-18T01:16:52;101987.69;;;-0.19
63113;BMP280;49206;48.020;21.378;2022-12-18T01:18:01;101984.94;;;-0.24
63113;BMP280;49206;48.020;21.378;2022-12-18T01:19:03;101987.69;;;-0.19
63113;BMP280;49206;48.020;21.378;2022-12-18T01:20:07;101985.47;;;-0.16
63113;BMP280;49206;48.020;21.378;2022-12-18T01:21:11;101989.94;;;-0.23
63113;BMP280;49206;48.020;21.378;2022-12-18T01:22:14;101988.72;;;-0.20
63113;BMP280;49206;48.020;21.378;2022-12-18T01:23:19;101990.88;;;-0.17
63113;BMP280;49206;48.020;21.378;2022-12-18T01:24:21;101994.72;;;-0.20
63113;BMP280;49206;48.020;21.378;2022-12-18T01:25:24;101988.00;;;-0.27
63113;BMP280;49206;48.020;21.378;2022-12-18T01:26:27;101995.53;;;-0.26
63113;BMP280;49206;48.020;21.378;2022-12-18T01:27:33;102005.34;;;-0.28
63113;BMP280;49206;48.020;21.378;2022-12-18T01:28:39;102001.13;;;-0.22
63113;BMP280;49206;48.020;21.378;2022-12-18T01:29:44;102004.13;;;-0.25
63113;BMP280;49206;48.020;21.378;2022-12-18T01:30:47;101998.59;;;-0.29
63113;BMP280;49206;48.020;21.378;2022-12-18T01:31:49;101993.41;;;-0.29
63113;BMP280;49206;48.020;21.378;2022-12-18T01:32:52;101996.78;;;-0.28
63113;BMP280;49206;48.020;21.378;2022-12-18T01:33:55;101995.19;;;-0.29
63113;BMP280;49206;48.020;21.378;2022-12-18T01:34:58;101990.81;;;-0.29
63113;BMP280;49206;48.020;21.378;2022-12-18T01:36:01;101996.00;;;-0.29
63113;BMP280;49206;48.020;21.378;2022-12-18T01:37:04;101994.00;;;-0.33
63113;BMP280;49206;48.020;21.378;2022-12-18T01:38:07;101996.66;;;-0.40
63113;BMP280;49206;48.020;21.378;2022-12-18T01:39:12;101988.91;;;-0.46
63113;BMP280;49206;48.020;21.378;2022-12-18T01:40:16;102004.47;;;-0.46
63113;BMP280;49206;48.020;21.378;2022-12-18T01:41:27;102000.31;;;-0.47
63113;BMP280;49206;48.020;21.378;2022-12-18T01:42:53;101999.47;;;-0.41
63113;BMP280;49206;48.020;21.378;2022-12-18T01:43:57;101996.88;;;-0.41
63113;BMP280;49206;48.020;21.378;2022-12-18T01:46:08;102006.59;;;-0.37
63113;BMP280;49206;48.020;21.378;2022-12-18T01:47:16;102000.63;;;-0.37
63113;BMP280;49206;48.020;21.378;2022-12-18T01:48:20;102008.41;;;-0.37
63113;BMP280;49206;48.020;21.378;2022-12-18T01:49:22;102005.59;;;-0.36
63113;BMP280;49206;48.020;21.378;2022-12-18T01:50:30;102009.00;;;-0.35
63113;BMP280;49206;48.020;21.378;2022-12-18T01:51:34;102010.56;;;-0.34
63113;BMP280;49206;48.020;21.378;2022-12-18T01:52:37;102014.81;;;-0.40
63113;BMP280;49206;48.020;21.378;2022-12-18T01:53:41;102020.00;;;-0.40
63113;BMP280;49206;48.020;21.378;2022-12-18T01:54:44;102013.22;;;-0.41
63113;BMP280;49206;48.020;21.378;2022-12-18T01:55:50;102021.22;;;-0.42
63113;BMP280;49206;48.020;21.378;2022-12-18T01:56:53;102023.97;;;-0.37
63113;BMP280;49206;48.020;21.378;2022-12-18T01:57:57;102021.38;;;-0.37
63113;BMP280;49206;48.020;21.378;2022-12-18T01:59:05;102032.78;;;-0.38
63113;BMP280;49206;48.020;21.378;2022-12-18T02:00:19;102029.22;;;-0.44
63113;BMP280;49206;48.020;21.378;2022-12-18T02:01:40;102036.38;;;-0.39
63113;BMP280;49206;48.020;21.378;2022-12-18T02:02:47;102027.22;;;-0.42
63113;BMP280;49206;48.020;21.378;2022-12-18T02:03:51;102033.78;;;-0.39
63113;BMP280;49206;48.020;21.378;2022-12-18T02:04:54;102030.03;;;-0.43
63113;BMP280;49206;48.020;21.378;2022-12-18T02:07:20;102040.81;;;-0.46
63113;BMP280;49206;48.020;21.378;2022-12-18T02:08:39;102034.09;;;-0.54
63113;BMP280;49206;48.020;21.378;2022-12-18T02:09:49;102042.25;;;-0.50
63113;BMP280;49206;48.020;21.378;2022-12-18T02:11:05;102041.09;;;-0.54
63113;BMP280;49206;48.020;21.378;2022-12-18T02:12:21;102038.09;;;-0.58
63113;BMP280;49206;48.020;21.378;2022-12-18T02:16:25;102049.69;;;-0.60
63113;BMP280;49206;48.020;21.378;2022-12-18T02:17:36;102047.09;;;-0.60
63113;BMP280;49206;48.020;21.378;2022-12-18T02:18:43;102046.94;;;-0.65
63113;BMP280;49206;48.020;21.378;2022-12-18T02:25:24;102060.19;;;-0.73
63113;BMP280;49206;48.020;21.378;2022-12-18T02:28:06;102068.22;;;-0.81
63113;BMP280;49206;48.020;21.378;2022-12-18T02:29:21;102065.53;;;-0.99
63113;BMP280;49206;48.020;21.378;2022-12-18T02:30:26;102070.13;;;-1.08
63113;BMP280;49206;48.020;21.378;2022-12-18T02:31:39;102079.19;;;-1.17
63113;BMP280;49206;48.020;21.378;2022-12-18T02:32:49;102072.00;;;-1.21
63113;BMP280;49206;48.020;21.378;2022-12-18T02:33:56;102073.59;;;-1.20
63113;BMP280;49206;48.020;21.378;2022-12-18T02:35:02;102072.78;;;-1.14
63113;BMP280;49206;48.020;21.378;2022-12-18T02:36:08;102079.34;;;-1.05
63113;BMP280;49206;48.020;21.378;2022-12-18T02:37:14;102071.31;;;-1.04
63113;BMP280;49206;48.020;21.378;2022-12-18T02:38:18;102077.88;;;-1.01
63113;BMP280;49206;48.020;21.378;2022-12-18T02:39:25;102081.50;;;-1.02
63113;BMP280;49206;48.020;21.378;2022-12-18T02:40:37;102080.31;;;-1.06
63113;BMP280;49206;48.020;21.378;2022-12-18T02:41:41;102081.38;;;-1.20
63113;BMP280;49206;48.020;21.378;2022-12-18T02:42:44;102081.34;;;-1.14
63113;BMP280;49206;48.020;21.378;2022-12-18T02:43:56;102080.97;;;-1.17
63113;BMP280;49206;48.020;21.378;2022-12-18T02:45:00;102083.94;;;-1.14
63113;BMP280;49206;48.020;21.378;2022-12-18T02:46:24;102087.38;;;-1.26
63113;BMP280;49206;48.020;21.378;2022-12-18T02:47:31;102091.16;;;-1.22
63113;BMP280;49206;48.020;21.378;2022-12-18T02:48:34;102092.72;;;-1.15
63113;BMP280;49206;48.020;21.378;2022-12-18T02:49:53;102091.34;;;-1.17
63113;BMP280;49206;48.020;21.378;2022-12-18T02:51:08;102086.50;;;-1.07
63113;BMP280;49206;48.020;21.378;2022-12-18T02:52:20;102093.16;;;-1.24
63113;BMP280;49206;48.020;21.378;2022-12-18T02:53:45;102094.94;;;-1.18
63113;BMP280;49206;48.020;21.378;2022-12-18T02:56:20;102096.53;;;-1.24
63113;BMP280;49206;48.020;21.378;2022-12-18T02:57:37;102108.25;;;-1.08
63113;BMP280;49206;48.020;21.378;2022-12-18T03:04:02;102112.19;;;-0.99
63113;BMP280;49206;48.020;21.378;2022-12-18T03:05:13;102112.41;;;-1.01
63113;BMP280;49206;48.020;21.378;2022-12-18T03:06:24;102111.81;;;-1.03
63113;BMP280;49206;48.020;21.378;2022-12-18T03:07:42;102115.19;;;-1.02
63113;BMP280;49206;48.020;21.378;2022-12-18T03:08:52;102112.41;;;-1.07
63113;BMP280;49206;48.020;21.378;2022-12-18T03:09:58;102107.63;;;-1.10
63113;BMP280;49206;48.020;21.378;2022-12-18T03:11:07;102110.66;;;-1.13
63113;BMP280;49206;48.020;21.378;2022-12-18T03:12:18;102113.84;;;-1.11
63113;BMP280;49206;48.020;21.378;2022-12-18T03:13:42;102113.66;;;-1.16
63113;BMP280;49206;48.020;21.378;2022-12-18T03:14:56;102110.28;;;-1.17
63113;BMP280;49206;48.020;21.378;2022-12-18T03:16:01;102120.84;;;-1.18
63113;BMP280;49206;48.020;21.378;2022-12-18T03:17:07;102118.28;;;-1.25
63113;BMP280;49206;48.020;21.378;2022-12-18T03:18:18;102119.69;;;-1.29
63113;BMP280;49206;48.020;21.378;2022-12-18T03:19:24;102114.88;;;-1.25
63113;BMP280;49206;48.020;21.378;2022-12-18T03:20:34;102122.28;;;-1.29
63113;BMP280;49206;48.020;21.378;2022-12-18T03:21:46;102119.69;;;-1.42
63113;BMP280;49206;48.020;21.378;2022-12-18T03:22:54;102116.56;;;-1.57
63113;BMP280;49206;48.020;21.378;2022-12-18T03:23:59;102122.91;;;-1.46
63113;BMP280;49206;48.020;21.378;2022-12-18T03:25:06;102122.69;;;-1.45
63113;BMP280;49206;48.020;21.378;2022-12-18T03:26:15;102121.53;;;-1.49
63113;BMP280;49206;48.020;21.378;2022-12-18T03:27:21;102125.91;;;-1.49
63113;BMP280;49206;48.020;21.378;2022-12-18T03:28:30;102128.66;;;-1.44
63113;BMP280;49206;48.020;21.378;2022-12-18T03:29:50;102127.69;;;-1.50
63113;BMP280;49206;48.020;21.378;2022-12-18T03:31:00;102128.50;;;-1.49
63113;BMP280;49206;48.020;21.378;2022-12-18T03:32:18;102130.06;;;-1.48
63113;BMP280;49206;48.020;21.378;2022-12-18T03:33:38;102132.09;;;-1.57
63113;BMP280;49206;48.020;21.378;2022-12-18T03:34:44;102135.09;;;-1.60
63113;BMP280;49206;48.020;21.378;2022-12-18T03:35:51;102138.28;;;-1.64
63113;BMP280;49206;48.020;21.378;2022-12-18T03:36:53;102141.84;;;-1.72
63113;BMP280;49206;48.020;21.378;2022-12-18T03:37:57;102143.06;;;-1.68
63113;BMP280;49206;48.020;21.378;2022-12-18T03:39:01;102142.66;;;-1.71
63113;BMP280;49206;48.020;21.378;2022-12-18T03:40:05;102148.22;;;-1.68
63113;BMP280;49206;48.020;21.378;2022-12-18T03:43:08;102136.91;;;-1.67
63113;BMP280;49206;48.020;21.378;2022-12-18T03:45:44;102153.41;;;-1.68
63113;BMP280;49206;48.020;21.378;2022-12-18T03:48:16;102148.25;;;-1.74
63113;BMP280;49206;48.020;21.378;2022-12-18T03:52:04;102151.84;;;-1.75
63113;BMP280;49206;48.020;21.378;2022-12-18T03:53:18;102158.22;;;-1.78
63113;BMP280;49206;48.020;21.378;2022-12-18T03:54:25;102161.81;;;-1.79
63113;BMP280;49206;48.020;21.378;2022-12-18T03:55:36;102159.22;;;-1.79
63113;BMP280;49206;48.020;21.378;2022-12-18T03:56:42;102164.38;;;-1.79
63113;BMP280;49206;48.020;21.378;2022-12-18T03:57:48;102163.19;;;-1.83
63113;BMP280;49206;48.020;21.378;2022-12-18T03:58:53;102164.34;;;-1.85
63113;BMP280;49206;48.020;21.378;2022-12-18T04:00:09;102168.97;;;-1.87
63113;BMP280;49206;48.020;21.378;2022-12-18T04:01:50;102173.56;;;-1.83
63113;BMP280;49206;48.020;21.378;2022-12-18T04:02:56;102172.94;;;-1.85
63113;BMP280;49206;48.020;21.378;2022-12-18T04:04:08;102181.47;;;-1.84
63113;BMP280;49206;48.020;21.378;2022-12-18T04:05:14;102177.50;;;-1.87
63113;BMP280;49206;48.020;21.378;2022-12-18T04:06:20;102175.09;;;-1.88
63113;BMP280;49206;48.020;21.378;2022-12-18T04:07:23;102180.28;;;-1.88
63113;BMP280;49206;48.020;21.378;2022-12-18T04:08:26;102172.75;;;-1.90
63113;BMP280;49206;48.020;21.378;2022-12-18T04:09:40;102180.91;;;-1.86
63113;BMP280;49206;48.020;21.378;2022-12-18T04:10:44;102177.50;;;-1.93
63113;BMP280;49206;48.020;21.378;2022-12-18T04:11:47;102189.84;;;-1.95
63113;BMP280;49206;48.020;21.378;2022-12-18T04:12:50;102198.00;;;-1.92
63113;BMP280;49206;48.020;21.378;2022-12-18T04:13:58;102193.66;;;-1.91
63113;BMP280;49206;48.020;21.378;2022-12-18T04:15:00;102194.03;;;-1.94
63113;BMP280;49206;48.020;21.378;2022-12-18T04:16:04;102198.81;;;-1.91
63113;BMP280;49206;48.020;21.378;2022-12-18T04:17:07;102197.63;;;-1.95
63113;BMP280;49206;48.020;21.378;2022-12-18T04:18:09;102202.41;;;-1.92
63113;BMP280;49206;48.020;21.378;2022-12-18T04:19:16;102198.00;;;-1.98
63113;BMP280;49206;48.020;21.378;2022-12-18T04:20:22;102205.19;;;-1.94
63113;BMP280;49206;48.020;21.378;2022-12-18T04:21:24;102204.78;;;-1.91
63113;BMP280;49206;48.020;21.378;2022-12-18T04:22:27;102195.81;;;-1.95
63113;BMP280;49206;48.020;21.378;2022-12-18T04:23:33;102206.97;;;-1.94
63113;BMP280;49206;48.020;21.378;2022-12-18T04:24:36;102200.59;;;-1.98
63113;BMP280;49206;48.020;21.378;2022-12-18T04:25:50;102204.78;;;-1.97
63113;BMP280;49206;48.020;21.378;2022-12-18T04:27:02;102203.78;;;-1.96
63113;BMP280;49206;48.020;21.378;2022-12-18T04:28:08;102211.94;;;-1.99
63113;BMP280;49206;48.020;21.378;2022-12-18T04:29:12;102221.09;;;-2.03
63113;BMP280;49206;48.020;21.378;2022-12-18T04:30:17;102218.31;;;-2.02
63113;BMP280;49206;48.020;21.378;2022-12-18T04:31:19;102213.31;;;-2.10
63113;BMP280;49206;48.020;21.378;2022-12-18T04:32:22;102219.13;;;-2.08
63113;BMP280;49206;48.020;21.378;2022-12-18T04:33:25;102213.94;;;-2.08
63113;BMP280;49206;48.020;21.378;2022-12-18T04:34:29;102224.88;;;-2.12
63113;BMP280;49206;48.020;21.378;2022-12-18T04:35:32;102225.25;;;-2.15
63113;BMP280;49206;48.020;21.378;2022-12-18T04:36:35;102223.84;;;-2.18
63113;BMP280;49206;48.020;21.378;2022-12-18T04:37:38;102225.03;;;-2.20
63113;BMP280;49206;48.020;21.378;2022-12-18T04:38:42;102224.28;;;-2.14
63113;BMP280;49206;48.020;21.378;2022-12-18T04:39:48;102229.84;;;-2.11
63113;BMP280;49206;48.020;21.378;2022-12-18T04:40:58;102229.66;;;-2.16
63113;BMP280;49206;48.020;21.378;2022-12-18T04:42:05;102234.63;;;-2.14
63113;BMP280;49206;48.020;21.378;2022-12-18T04:43:10;102233.22;;;-2.17
63113;BMP280;49206;48.020;21.378;2022-12-18T04:44:12;102234.81;;;-2.22
63113;BMP280;49206;48.020;21.378;2022-12-18T04:45:15;102237.00;;;-2.19
63113;BMP280;49206;48.020;21.378;2022-12-18T04:46:18;102232.81;;;-2.20
63113;BMP280;49206;48.020;21.378;2022-12-18T04:47:21;102237.38;;;-2.22
63113;BMP280;49206;48.020;21.378;2022-12-18T04:48:23;102235.81;;;-2.17
63113;BMP280;49206;48.020;21.378;2022-12-18T04:49:26;102243.34;;;-2.15
63113;BMP280;49206;48.020;21.378;2022-12-18T04:50:29;102242.38;;;-2.14
63113;BMP280;49206;48.020;21.378;2022-12-18T04:51:32;102233.22;;;-2.17
63113;BMP280;49206;48.020;21.378;2022-12-18T04:52:35;102235.81;;;-2.17
63113;BMP280;49206;48.020;21.378;2022-12-18T04:53:38;102237.41;;;-2.16
63113;BMP280;49206;48.020;21.378;2022-12-18T04:54:41;102247.94;;;-2.17
63113;BMP280;49206;48.020;21.378;2022-12-18T04:55:44;102247.75;;;-2.16
63113;BMP280;49206;48.020;21.378;2022-12-18T04:56:46;102250.91;;;-2.20
63113;BMP280;49206;48.020;21.378;2022-12-18T04:57:50;102249.72;;;-2.18
63113;BMP280;49206;48.020;21.378;2022-12-18T04:58:52;102258.88;;;-2.15
63113;BMP280;49206;48.020;21.378;2022-12-18T04:59:56;102252.91;;;-2.22
63113;BMP280;49206;48.020;21.378;2022-12-18T05:01:00;102254.69;;;-2.23
63113;BMP280;49206;48.020;21.378;2022-12-18T05:02:04;102261.06;;;-2.19
63113;BMP280;49206;48.020;21.378;2022-12-18T05:03:06;102258.88;;;-2.15
63113;BMP280;49206;48.020;21.378;2022-12-18T05:04:09;102253.94;;;-2.17
63113;BMP280;49206;48.020;21.378;2022-12-18T05:05:12;102260.50;;;-2.14
63113;BMP280;49206;48.020;21.378;2022-12-18T05:06:14;102265.88;;;-2.16
63113;BMP280;49206;48.020;21.378;2022-12-18T05:07:17;102266.28;;;-2.12
63113;BMP280;49206;48.020;21.378;2022-12-18T05:08:19;102270.84;;;-2.21
63113;BMP280;49206;48.020;21.378;2022-12-18T05:09:22;102262.41;;;-2.29
63113;BMP280;49206;48.020;21.378;2022-12-18T05:10:25;102275.97;;;-2.27
63113;BMP280;49206;48.020;21.378;2022-12-18T05:11:28;102273.03;;;-2.24
63113;BMP280;49206;48.020;21.378;2022-12-18T05:12:31;102274.19;;;-2.20
63113;BMP280;49206;48.020;21.378;2022-12-18T05:13:36;102275.16;;;-2.28
63113;BMP280;49206;48.020;21.378;2022-12-18T05:14:40;102280.28;;;-2.34
63113;BMP280;49206;48.020;21.378;2022-12-18T05:15:42;102278.13;;;-2.37
63113;BMP280;49206;48.020;21.378;2022-12-18T05:16:56;102280.28;;;-2.34
63113;BMP280;49206;48.020;21.378;2022-12-18T05:18:02;102291.47;;;-2.34
63113;BMP280;49206;48.020;21.378;2022-12-18T05:19:05;102294.59;;;-2.38
63113;BMP280;49206;48.020;21.378;2022-12-18T05:20:10;102288.44;;;-2.44
63113;BMP280;49206;48.020;21.378;2022-12-18T05:21:12;102299.56;;;-2.43
63113;BMP280;49206;48.020;21.378;2022-12-18T05:22:14;102295.56;;;-2.46
63113;BMP280;49206;48.020;21.378;2022-12-18T05:23:19;102297.41;;;-2.40
63113;BMP280;49206;48.020;21.378;2022-12-18T05:24:22;102301.19;;;-2.42
63113;BMP280;49206;48.020;21.378;2022-12-18T05:25:24;102297.63;;;-2.35
63113;BMP280;49206;48.020;21.378;2022-12-18T05:26:27;102294.00;;;-2.40
63113;BMP280;49206;48.020;21.378;2022-12-18T05:27:29;102299.00;;;-2.39
63113;BMP280;49206;48.020;21.378;2022-12-18T05:28:34;102302.19;;;-2.37
63113;BMP280;49206;48.020;21.378;2022-12-18T05:29:37;102296.00;;;-2.42
63113;BMP280;49206;48.020;21.378;2022-12-18T05:30:39;102299.97;;;-2.46
63113;BMP280;49206;48.020;21.378;2022-12-18T05:31:44;102303.09;;;-2.57
63113;BMP280;49206;48.020;21.378;2022-12-18T05:32:47;102305.22;;;-2.61
63113;BMP280;49206;48.020;21.378;2022-12-18T05:33:49;102306.47;;;-2.57
63113;BMP280;49206;48.020;21.378;2022-12-18T05:34:52;102306.69;;;-2.52
63113;BMP280;49206;48.020;21.378;2022-12-18T05:35:57;102308.44;;;-2.59
63113;BMP280;49206;48.020;21.378;2022-12-18T05:37:00;102312.84;;;-2.59
63113;BMP280;49206;48.020;21.378;2022-12-18T05:38:02;102314.16;;;-2.63
63113;BMP280;49206;48.020;21.378;2022-12-18T05:39:05;102315.75;;;-2.62
63113;BMP280;49206;48.020;21.378;2022-12-18T05:40:09;102325.09;;;-2.61
63113;BMP280;49206;48.020;21.378;2022-12-18T05:41:11;102324.94;;;-2.60
63113;BMP280;49206;48.020;21.378;2022-12-18T05:42:14;102315.84;;;-2.49
63113;BMP280;49206;48.020;21.378;2022-12-18T05:43:18;102325.75;;;-2.59
63113;BMP280;49206;48.020;21.378;2022-12-18T05:44:23;102318.16;;;-2.61
63113;BMP280;49206;48.020;21.378;2022-12-18T05:45:26;102332.88;;;-2.61
63113;BMP280;49206;48.020;21.378;2022-12-18T05:46:28;102325.19;;;-2.55
63113;BMP280;49206;48.020;21.378;2022-12-18T05:47:32;102321.81;;;-2.55
63113;BMP280;49206;48.020;21.378;2022-12-18T05:48:34;102332.88;;;-2.61
63113;BMP280;49206;48.020;21.378;2022-12-18T05:49:37;102329.94;;;-2.58
63113;BMP280;49206;48.020;21.378;2022-12-18T05:50:41;102326.72;;;-2.60
63113;BMP280;49206;48.020;21.378;2022-12-18T05:51:44;102330.97;;;-2.53
63113;BMP280;49206;48.020;21.378;2022-12-18T05:52:48;102331.38;;;-2.49
63113;BMP280;49206;48.020;21.378;2022-12-18T05:53:51;102331.59;;;-2.44
63113;BMP280;49206;48.020;21.378;2022-12-18T05:54:53;102335.56;;;-2.48
63113;BMP280;49206;48.020;21.378;2022-12-18T05:56:00;102336.97;;;-2.46
63113;BMP280;49206;48.020;21.378;2022-12-18T05:57:03;102342.13;;;-2.46
63113;BMP280;49206;48.020;21.378;2022-12-18T05:58:07;102345.75;;;-2.40
63113;BMP280;49206;48.020;21.378;2022-12-18T05:59:10;102349.09;;;-2.46
63113;BMP280;49206;48.020;21.378;2022-12-18T06:00:16;102338.97;;;-2.41
63113;BMP280;49206;48.020;21.378;2022-12-18T06:01:22;102341.91;;;-2.51
63113;BMP280;49206;48.020;21.378;2022-12-18T06:02:28;102358.22;;;-2.50
63113;BMP280;49206;48.020;21.378;2022-12-18T06:03:31;102354.69;;;-2.43
63113;BMP280;49206;48.020;21.378;2022-12-18T06:04:35;102348.16;;;-2.39
63113;BMP280;49206;48.020;21.378;2022-12-18T06:05:40;102355.31;;;-2.34
63113;BMP280;49206;48.020;21.378;2022-12-18T06:06:46;102357.28;;;-2.43
63113;BMP280;49206;48.020;21.378;2022-12-18T06:07:49;102366.25;;;-2.39
63113;BMP280;49206;48.020;21.378;2022-12-18T06:08:56;102357.69;;;-2.39
63113;BMP280;49206;48.020;21.378;2022-12-18T06:09:59;102367.03;;;-2.38
63113;BMP280;49206;48.020;21.378;2022-12-18T06:11:02;102356.31;;;-2.35
63113;BMP280;49206;48.020;21.378;2022-12-18T06:12:05;102367.69;;;-2.30
63113;BMP280;49206;48.020;21.378;2022-12-18T06:13:10;102366.50;;;-2.27
63113;BMP280;49206;48.020;21.378;2022-12-18T06:14:15;102369.34;;;-2.22
63113;BMP280;49206;48.020;21.378;2022-12-18T06:15:19;102367.97;;;-2.18
63113;BMP280;49206;48.020;21.378;2022-12-18T06:16:25;102370.34;;;-2.23
63113;BMP280;49206;48.020;21.378;2022-12-18T06:17:30;102379.53;;;-2.14
63113;BMP280;49206;48.020;21.378;2022-12-18T06:18:37;102382.16;;;-2.08
63113;BMP280;49206;48.020;21.378;2022-12-18T06:19:41;102379.13;;;-2.11
63113;BMP280;49206;48.020;21.378;2022-12-18T06:20:43;102383.56;;;-2.05
63113;BMP280;49206;48.020;21.378;2022-12-18T06:21:46;102381.56;;;-2.03
63113;BMP280;49206;48.020;21.378;2022-12-18T06:22:49;102378.56;;;-2.07
63113;BMP280;49206;48.020;21.378;2022-12-18T06:23:51;102387.94;;;-2.06
63113;BMP280;49206;48.020;21.378;2022-12-18T06:24:53;102382.91;;;-2.14
63113;BMP280;49206;48.020;21.378;2022-12-18T06:25:56;102386.19;;;-1.99
63113;BMP280;49206;48.020;21.378;2022-12-18T06:26:59;102383.00;;;-1.94
63113;BMP280;49206;48.020;21.378;2022-12-18T06:28:01;102380.78;;;-1.97
63113;BMP280;49206;48.020;21.378;2022-12-18T06:29:06;102391.38;;;-1.86
63113;BMP280;49206;48.020;21.378;2022-12-18T06:30:09;102388.06;;;-1.80
63113;BMP280;49206;48.020;21.378;2022-12-18T06:31:12;102388.47;;;-1.76
63113;BMP280;49206;48.020;21.378;2022-12-18T06:32:14;102400.81;;;-1.72
63113;BMP280;49206;48.020;21.378;2022-12-18T06:33:17;102392.66;;;-1.69
63113;BMP280;49206;48.020;21.378;2022-12-18T06:34:19;102401.41;;;-1.76